Time;durP1;ratioP1;P1;durP2;ratioP2;P2;SDS_P1;SDS_P2;PMS_P1;PMS_P2;Temp;Humidity;BMP_temperature;BMP_pressure;BME280_temperature;BME280_humidity;BME280_pressure;Samples;Min_cycle;Max_cycle;Signal;HPM_P1;HPM_P2
2022/10/31 00:00:28;;;;;;;37.67;12.93;;;;;;;14.07;91.61;101639.88;5036653;28;20507;-64
2022/10/31 00:02:55;;;;;;;35.22;12.90;;;;;;;14.02;91.38;101640.34;5036179;28;20049;-64
2022/10/31 00:05:21;;;;;;;35.78;12.90;;;;;;;13.91;92.04;101632.56;5035210;28;20175;-65
2022/10/31 00:07:52;;;;;;;32.38;12.98;;;;;;;13.97;92.30;101615.97;5034210;28;20045;-64
2022/10/31 00:10:19;;;;;;;35.42;12.63;;;;;;;13.96;92.93;101621.47;5034748;28;20406;-64
2022/10/31 00:12:45;;;;;;;32.15;12.52;;;;;;;13.85;93.09;101632.38;5036307;28;20049;-65
2022/10/31 00:15:12;;;;;;;37.35;13.52;;;;;;;13.85;93.30;101632.38;5035471;28;20045;-65
2022/10/31 00:17:39;;;;;;;37.92;12.48;;;;;;;13.84;93.76;101642.19;5035917;28;20504;-65
2022/10/31 00:20:06;;;;;;;33.30;12.48;;;;;;;13.81;93.74;101639.84;5035731;28;20053;-65
2022/10/31 00:22:33;;;;;;;32.92;12.43;;;;;;;13.86;93.50;101636.69;5035921;28;20050;-65
2022/10/31 00:24:59;;;;;;;30.98;12.10;;;;;;;13.84;93.55;101634.19;5035640;28;20091;-65
2022/10/31 00:27:26;;;;;;;34.53;12.20;;;;;;;13.82;93.52;101634.38;5034742;28;20499;-65
2022/10/31 00:29:54;;;;;;;35.47;14.05;;;;;;;13.80;94.20;101636.31;5035750;28;20052;-65
2022/10/31 00:32:20;;;;;;;30.10;12.02;;;;;;;13.87;94.09;101635.72;5036090;28;20049;-65
2022/10/31 00:34:47;;;;;;;31.05;12.48;;;;;;;13.85;94.00;101629.72;5036578;28;20083;-65
2022/10/31 00:37:14;;;;;;;25.92;12.13;;;;;;;13.88;93.23;101629.38;5035432;28;20111;-65
2022/10/31 00:39:42;;;;;;;33.03;13.50;;;;;;;13.88;93.82;101642.72;4998182;28;20045;-63
2022/10/31 00:42:08;;;;;;;36.05;12.60;;;;;;;13.83;93.74;101637.84;5035261;28;20045;-63
2022/10/31 00:44:35;;;;;;;28.73;12.38;;;;;;;13.71;94.00;101631.91;5035644;28;20049;-64
2022/10/31 00:47:02;;;;;;;31.60;13.05;;;;;;;13.66;94.31;101639.56;5035295;28;20049;-63
2022/10/31 00:49:28;;;;;;;42.83;13.88;;;;;;;13.72;94.51;101638.94;5001336;28;20045;-64
2022/10/31 00:51:55;;;;;;;31.30;13.07;;;;;;;13.77;94.18;101647.31;5035476;28;20128;-63
2022/10/31 00:54:22;;;;;;;32.65;12.77;;;;;;;13.80;93.98;101657.66;5035384;28;20045;-63
2022/10/31 00:56:49;;;;;;;33.67;13.30;;;;;;;13.83;94.30;101656.53;5035446;28;20103;-63
2022/10/31 00:59:15;;;;;;;31.75;12.55;;;;;;;13.91;93.92;101661.91;5034770;28;20442;-64
2022/10/31 01:01:42;;;;;;;29.98;12.57;;;;;;;13.91;93.85;101669.09;5033799;28;20052;-64
2022/10/31 01:04:09;;;;;;;32.22;12.98;;;;;;;13.87;94.02;101660.56;5034957;28;20072;-64
2022/10/31 01:06:36;;;;;;;35.38;12.27;;;;;;;13.93;93.88;101662.59;5047452;28;20080;-65
2022/10/31 01:09:02;;;;;;;27.30;12.43;;;;;;;13.98;93.62;101651.47;5074811;28;20375;-64
2022/10/31 01:11:30;;;;;;;30.00;12.73;;;;;;;13.99;93.42;101653.16;5074705;28;20049;-64
2022/10/31 01:13:57;;;;;;;34.08;13.25;;;;;;;13.99;92.80;101645.16;5074954;28;20040;-64
2022/10/31 01:16:25;;;;;;;40.63;13.88;;;;;;;13.95;93.32;101657.97;5074610;28;20135;-64
2022/10/31 01:18:52;;;;;;;33.25;12.50;;;;;;;13.93;93.05;101648.44;5071791;28;20041;-65
2022/10/31 01:21:22;;;;;;;29.73;12.60;;;;;;;13.92;92.95;101654.78;5039244;28;20055;-64
2022/10/31 01:23:50;;;;;;;35.13;12.88;;;;;;;13.92;92.75;101654.78;5054443;28;20418;-64
2022/10/31 01:26:21;;;;;;;38.67;12.90;;;;;;;13.94;92.72;101650.13;5054861;28;20053;-64
2022/10/31 01:28:51;;;;;;;34.47;12.57;;;;;;;13.91;92.12;101648.56;5054127;28;20037;-64
2022/10/31 01:31:20;;;;;;;37.53;12.90;;;;;;;13.92;92.02;101642.25;5054352;28;20834;-64
2022/10/31 01:33:48;;;;;;;33.05;12.77;;;;;;;13.89;92.03;101637.22;5054268;28;20049;-65
2022/10/31 01:36:26;;;;;;;26.77;12.18;;;;;;;13.93;92.41;101635.94;5061370;28;20051;-64
2022/10/31 01:38:55;;;;;;;35.05;12.50;;;;;;;13.87;92.79;101625.88;5059056;28;20049;-64
2022/10/31 01:41:24;;;;;;;31.55;12.50;;;;;;;13.87;92.48;101622.38;5053978;28;20131;-64
2022/10/31 01:43:55;;;;;;;28.65;13.05;;;;;;;13.86;92.93;101618.88;5074172;28;20040;-64
2022/10/31 01:46:25;;;;;;;40.40;13.63;;;;;;;13.85;93.13;101617.19;5073966;28;20048;-64
2022/10/31 01:48:55;;;;;;;30.23;13.00;;;;;;;13.81;93.17;101626.50;5056390;28;20090;-64
2022/10/31 01:51:28;;;;;;;31.55;13.07;;;;;;;13.86;93.02;101620.69;5073873;28;20040;-64
2022/10/31 01:53:59;;;;;;;29.67;12.88;;;;;;;13.86;92.62;101626.03;5074018;28;20064;-65
2022/10/31 01:56:27;;;;;;;30.07;13.57;;;;;;;13.88;93.36;101618.72;5073783;28;20044;-65
2022/10/31 01:58:56;;;;;;;32.83;12.80;;;;;;;13.86;93.33;101608.22;5074035;28;20283;-65
2022/10/31 02:01:23;;;;;;;32.60;12.80;;;;;;;13.86;93.38;101608.22;5056463;28;20136;-65
2022/10/31 02:03:50;;;;;;;33.97;13.63;;;;;;;13.83;93.31;101604.03;5073404;28;20063;-65
2022/10/31 02:06:32;;;;;;;34.80;13.45;;;;;;;13.81;93.36;101606.00;5047316;28;20056;-65
2022/10/31 02:09:01;;;;;;;35.20;13.00;;;;;;;13.78;93.31;101616.13;5033449;28;20456;-65
2022/10/31 02:11:29;;;;;;;33.97;12.80;;;;;;;13.77;92.77;101607.31;5033823;28;20108;-65
2022/10/31 02:13:58;;;;;;;31.20;13.00;;;;;;;13.70;93.45;101613.38;5033818;28;20045;-65
2022/10/31 02:16:24;;;;;;;39.00;13.13;;;;;;;13.71;92.96;101609.75;5033180;28;20047;-65
2022/10/31 02:18:52;;;;;;;38.25;13.32;;;;;;;13.71;93.24;101612.41;5033409;28;20498;-65
2022/10/31 02:21:41;;;;;;;27.48;11.85;;;;;;;13.59;92.82;101612.66;5033793;28;20499;-65
2022/10/31 02:24:38;;;;;;;36.25;13.00;;;;;;;13.51;93.05;101615.22;5033630;28;20050;-65
2022/10/31 02:27:22;;;;;;;39.75;11.93;;;;;;;13.48;92.89;101610.22;5033602;28;20042;-65
2022/10/31 02:30:04;;;;;;;29.00;12.23;;;;;;;13.46;93.21;101622.00;5033474;28;20052;-65
2022/10/31 02:35:47;;;;;;;41.83;12.80;;;;;;;13.43;92.69;101625.81;5111169;27;20944;-63
2022/10/31 02:38:54;;;;;;;37.40;13.32;;;;;;;13.40;93.14;101623.44;5109901;28;20075;-63
2022/10/31 02:41:40;;;;;;;32.88;12.55;;;;;;;13.33;93.63;101620.53;5090667;28;20047;-63
2022/10/31 02:44:36;;;;;;;33.25;12.35;;;;;;;13.36;93.71;101627.41;5109663;28;20047;-63
2022/10/31 02:47:15;;;;;;;30.75;12.68;;;;;;;13.32;94.08;101636.72;5110736;28;20044;-63
2022/10/31 02:49:52;;;;;;;31.17;12.95;;;;;;;13.35;94.28;101634.56;5110849;28;20044;-63
2022/10/31 02:52:24;;;;;;;36.08;13.15;;;;;;;13.27;94.00;101622.97;5110898;28;20138;-63
2022/10/31 02:54:52;;;;;;;33.17;12.60;;;;;;;13.19;94.44;101615.72;5110747;28;20123;-64
2022/10/31 02:57:36;;;;;;;31.20;12.40;;;;;;;13.40;93.52;101616.28;5110392;28;20401;-64
2022/10/31 03:00:07;;;;;;;35.67;12.32;;;;;;;13.37;93.40;101613.09;5109185;28;20090;-63
2022/10/31 03:02:51;;;;;;;30.77;12.37;;;;;;;13.34;93.38;101624.91;5109286;28;20123;-63
2022/10/31 03:05:44;;;;;;;27.52;12.90;;;;;;;13.38;93.48;101620.09;5109766;28;20284;-64
2022/10/31 03:10:59;;;;;;;32.72;13.50;;;;;;;13.33;93.85;101627.69;5152189;27;20379;-64
2022/10/31 03:13:38;;;;;;;23.98;11.27;;;;;;;13.31;93.89;101629.69;5151227;27;20046;-64
2022/10/31 03:18:56;;;;;;;27.90;11.55;;;;;;;13.29;93.99;101624.47;5131500;27;20131;-64
2022/10/31 03:21:30;;;;;;;33.55;13.07;;;;;;;13.27;94.22;101629.13;5087421;28;20054;-64
2022/10/31 03:24:01;;;;;;;37.17;13.05;;;;;;;13.22;94.07;101623.38;5110958;28;20052;-64
2022/10/31 03:26:29;;;;;;;40.78;12.65;;;;;;;13.13;93.84;101614.47;5110504;28;20036;-64
2022/10/31 03:29:01;;;;;;;31.23;12.40;;;;;;;13.09;94.30;101613.09;5110440;28;20088;-64
2022/10/31 03:31:51;;;;;;;27.05;12.25;;;;;;;13.07;94.60;101607.09;5110900;28;20046;-64
2022/10/31 03:34:19;;;;;;;34.67;12.38;;;;;;;13.06;94.05;101608.06;5110387;28;20156;-63
2022/10/31 03:36:51;;;;;;;31.35;12.00;;;;;;;13.04;94.19;101616.22;5099526;28;20048;-64
2022/10/31 03:39:20;;;;;;;32.77;13.00;;;;;;;12.99;94.71;101615.81;5066183;28;20055;-63
2022/10/31 03:41:55;;;;;;;34.97;12.95;;;;;;;13.00;94.83;101617.47;5079425;28;20795;-63
2022/10/31 03:44:23;;;;;;;32.95;12.75;;;;;;;12.96;94.84;101612.63;5089855;28;20556;-63
2022/10/31 03:46:57;;;;;;;32.03;12.60;;;;;;;12.93;94.84;101602.25;5090087;28;20127;-64
2022/10/31 03:49:24;;;;;;;27.35;11.93;;;;;;;12.98;94.12;101605.31;5088821;28;20040;-64
2022/10/31 03:52:02;;;;;;;37.75;12.13;;;;;;;12.95;94.41;101608.28;5072001;28;20040;-63
2022/10/31 03:54:40;;;;;;;30.90;11.15;;;;;;;12.90;94.75;101607.88;5090216;28;20094;-64
2022/10/31 03:57:19;;;;;;;28.80;11.20;;;;;;;12.84;94.31;101612.81;5071628;28;20046;-63
2022/10/31 03:59:53;;;;;;;30.20;12.18;;;;;;;12.85;94.55;101609.16;5071940;28;20040;-64
2022/10/31 04:02:24;;;;;;;35.60;12.90;;;;;;;12.89;94.95;101600.88;5089526;28;20040;-64
2022/10/31 04:04:52;;;;;;;35.28;12.27;;;;;;;12.88;94.90;101600.06;5071483;28;20493;-64
2022/10/31 04:07:21;;;;;;;38.97;12.85;;;;;;;12.87;94.69;101609.00;5089551;28;20106;-64
2022/10/31 04:09:51;;;;;;;33.25;12.75;;;;;;;12.89;95.17;101599.03;5071873;28;20044;-63
2022/10/31 04:12:21;;;;;;;27.38;12.68;;;;;;;12.90;94.86;101605.19;5089682;28;20068;-64
2022/10/31 04:14:57;;;;;;;32.03;12.63;;;;;;;12.94;94.73;101611.94;5073267;28;20500;-63
2022/10/31 04:17:29;;;;;;;31.52;12.50;;;;;;;12.99;94.75;101609.66;5080320;28;20099;-64
2022/10/31 04:19:59;;;;;;;28.75;13.13;;;;;;;13.03;94.68;101608.38;5069213;28;20131;-63
2022/10/31 04:22:25;;;;;;;32.42;12.75;;;;;;;13.10;94.62;101616.59;5069344;28;20044;-64
2022/10/31 04:24:52;;;;;;;30.13;13.05;;;;;;;13.14;94.03;101618.00;5068773;28;20041;-64
2022/10/31 04:27:19;;;;;;;32.05;13.25;;;;;;;13.20;93.87;101606.72;5069309;28;20041;-63
2022/10/31 04:29:45;;;;;;;37.38;13.30;;;;;;;13.19;93.42;101600.56;5023906;28;20041;-63
2022/10/31 04:32:13;;;;;;;32.13;12.70;;;;;;;13.25;93.28;101599.94;5037723;28;20106;-63
2022/10/31 04:34:39;;;;;;;33.83;12.00;;;;;;;13.27;92.70;101604.31;5055946;28;20053;-64
2022/10/31 04:37:06;;;;;;;30.92;13.07;;;;;;;13.28;93.09;101605.97;5055159;28;20060;-63
2022/10/31 04:39:33;;;;;;;30.25;12.48;;;;;;;13.27;92.93;101599.81;4984129;28;20049;-64
2022/10/31 04:42:19;;;;;;;32.33;12.82;;;;;;;13.24;93.11;101603.63;5040371;28;20041;-64
2022/10/31 04:44:46;;;;;;;32.60;12.27;;;;;;;13.20;93.00;101601.41;5037764;28;20037;-63
2022/10/31 04:47:13;;;;;;;34.30;12.45;;;;;;;13.20;93.17;101585.41;5037467;28;20063;-63
2022/10/31 04:49:41;;;;;;;32.92;13.27;;;;;;;13.17;93.14;101594.56;5055784;28;20045;-64
2022/10/31 04:52:10;;;;;;;34.95;12.73;;;;;;;13.14;93.00;101597.50;5038063;28;20128;-64
2022/10/31 04:54:37;;;;;;;33.17;13.13;;;;;;;13.14;92.84;101605.50;5055179;28;20445;-64
2022/10/31 04:57:23;;;;;;;35.97;12.35;;;;;;;13.05;93.16;101604.56;5055026;28;20041;-63
2022/10/31 04:59:50;;;;;;;28.45;12.07;;;;;;;13.05;93.19;101595.75;5037373;28;20111;-63
2022/10/31 05:02:17;;;;;;;35.03;14.15;;;;;;;13.05;93.33;101577.94;5021165;28;20045;-64
2022/10/31 05:04:51;;;;;;;31.83;12.70;;;;;;;13.04;93.22;101583.41;5038031;28;20061;-64
2022/10/31 05:07:18;;;;;;;41.38;13.18;;;;;;;13.04;93.18;101576.28;5055008;28;20045;-64
2022/10/31 05:09:44;;;;;;;28.30;12.05;;;;;;;13.02;93.21;101580.91;5054787;28;20044;-64
2022/10/31 05:12:12;;;;;;;31.23;13.30;;;;;;;13.05;93.10;101577.94;5054751;28;20441;-64
2022/10/31 05:14:58;;;;;;;30.65;12.43;;;;;;;13.06;92.89;101576.97;5054975;28;20049;-64
2022/10/31 05:17:46;;;;;;;27.52;12.38;;;;;;;13.02;93.24;101570.25;5056377;28;20396;-64
2022/10/31 05:20:33;;;;;;;29.92;11.88;;;;;;;13.03;93.28;101571.91;5073408;28;20068;-64
2022/10/31 05:23:10;;;;;;;32.72;12.85;;;;;;;13.03;93.18;101574.59;5073383;28;20055;-63
2022/10/31 05:25:39;;;;;;;29.92;12.85;;;;;;;13.05;93.10;101577.94;5073603;28;20131;-64
2022/10/31 05:28:07;;;;;;;36.80;12.45;;;;;;;13.08;92.70;101579.47;5072916;28;20028;-63
2022/10/31 05:30:34;;;;;;;39.95;12.48;;;;;;;13.05;92.73;101583.25;5074590;28;20390;-63
2022/10/31 05:33:02;;;;;;;34.13;11.90;;;;;;;12.99;93.07;101570.56;5073085;28;20257;-64
2022/10/31 05:35:49;;;;;;;30.55;12.75;;;;;;;13.06;92.98;101576.97;5074386;28;20052;-64
2022/10/31 05:38:36;;;;;;;38.42;12.70;;;;;;;12.97;93.19;101575.19;5074134;28;20490;-66
2022/10/31 05:41:22;;;;;;;35.80;12.45;;;;;;;12.91;93.25;101570.44;5049850;28;20044;-63
2022/10/31 05:43:49;;;;;;;34.40;12.63;;;;;;;12.96;93.06;101570.84;5073090;28;20055;-64
2022/10/31 05:46:20;;;;;;;33.45;13.13;;;;;;;12.92;93.00;101574.78;5073918;28;20490;-64
2022/10/31 05:49:07;;;;;;;32.60;12.88;;;;;;;12.93;93.00;101568.47;5073005;28;20178;-64
2022/10/31 05:51:53;;;;;;;39.63;12.93;;;;;;;12.96;93.06;101570.00;5072790;28;20493;-64
2022/10/31 05:54:26;;;;;;;36.17;12.93;;;;;;;12.95;92.56;101565.66;5074478;28;20445;-64
2022/10/31 05:56:53;;;;;;;45.80;12.45;;;;;;;12.92;92.45;101568.63;5074009;28;20059;-64
2022/10/31 05:59:20;;;;;;;46.08;13.55;;;;;;;12.90;93.06;101573.25;5073924;28;20072;-64
2022/10/31 06:01:47;;;;;;;33.65;12.65;;;;;;;12.87;93.30;101566.41;5073946;28;20401;-64
2022/10/31 06:04:27;;;;;;;28.88;13.35;;;;;;;12.85;92.84;101571.06;5057635;28;20072;-64
2022/10/31 06:06:53;;;;;;;34.50;13.20;;;;;;;12.81;93.28;101559.84;5085516;28;20047;-64
2022/10/31 06:09:21;;;;;;;34.50;13.77;;;;;;;12.80;93.48;101563.50;5092668;28;20478;-64
2022/10/31 06:11:49;;;;;;;33.50;12.88;;;;;;;12.81;93.49;101567.84;5094241;28;20147;-64
2022/10/31 06:14:35;;;;;;;36.42;13.55;;;;;;;12.80;93.42;101568.00;5092732;28;20425;-64
2022/10/31 06:17:02;;;;;;;33.03;13.40;;;;;;;12.81;93.59;101567.03;5087649;28;20072;-64
2022/10/31 06:19:49;;;;;;;39.50;13.55;;;;;;;12.83;93.37;101565.88;5073275;28;20048;-64
2022/10/31 06:22:24;;;;;;;35.75;14.48;;;;;;;12.83;93.55;101565.88;5057251;28;20405;-64
2022/10/31 06:24:51;;;;;;;37.35;14.15;;;;;;;12.78;94.09;101554.00;5073114;28;20044;-64
2022/10/31 06:27:26;;;;;;;36.40;13.30;;;;;;;12.77;94.07;101561.16;5055851;28;20452;-64
2022/10/31 06:29:53;;;;;;;40.38;13.65;;;;;;;12.73;93.91;101557.09;5073091;28;20094;-64
2022/10/31 06:32:27;;;;;;;35.50;13.02;;;;;;;12.76;93.80;101563.94;5073192;28;20055;-64
2022/10/31 06:34:55;;;;;;;41.15;15.05;;;;;;;12.70;94.08;101560.06;5073547;28;20079;-64
2022/10/31 06:37:22;;;;;;;35.60;14.25;;;;;;;12.67;94.02;101560.34;5073175;28;20094;-64
2022/10/31 06:39:50;;;;;;;36.58;14.35;;;;;;;12.68;93.74;101565.53;5035451;28;20048;-64
2022/10/31 06:42:17;;;;;;;32.42;14.05;;;;;;;12.75;93.72;101570.25;5072838;28;20036;-65
2022/10/31 06:44:44;;;;;;;30.40;13.75;;;;;;;12.74;94.05;101566.75;5072560;28;20044;-65
2022/10/31 06:47:30;;;;;;;47.28;14.32;;;;;;;12.74;94.40;101558.78;5072093;28;20044;-65
2022/10/31 06:50:03;;;;;;;35.67;13.48;;;;;;;12.78;94.28;101561.97;5055811;28;20047;-65
2022/10/31 06:52:30;;;;;;;38.58;14.20;;;;;;;12.73;93.67;101559.75;5021439;28;20439;-65
2022/10/31 06:54:56;;;;;;;34.33;13.63;;;;;;;12.65;94.25;101562.31;5054933;28;20049;-63
2022/10/31 06:57:23;;;;;;;31.02;14.27;;;;;;;12.66;94.47;101563.97;5072937;28;20048;-63
2022/10/31 06:59:50;;;;;;;36.88;14.18;;;;;;;12.71;94.69;101568.88;5072895;28;20520;-64
2022/10/31 07:02:20;;;;;;;34.88;13.88;;;;;;;12.75;94.43;101567.59;5055131;28;20051;-63
2022/10/31 07:04:48;;;;;;;36.00;14.75;;;;;;;12.80;94.68;101566.16;5072179;28;20090;-64
2022/10/31 07:07:17;;;;;;;32.13;14.48;;;;;;;12.84;93.99;101566.69;5070454;28;20041;-63
2022/10/31 07:09:44;;;;;;;41.17;15.68;;;;;;;12.88;94.18;101570.75;5071147;28;20044;-63
2022/10/31 07:12:15;;;;;;;45.05;15.88;;;;;;;12.88;94.28;101576.09;5038779;28;20098;-63
2022/10/31 07:14:51;;;;;;;43.67;17.63;;;;;;;12.89;94.32;101572.41;5073033;28;20494;-64
2022/10/31 07:17:17;;;;;;;41.00;15.45;;;;;;;12.91;94.16;101572.28;5072202;28;20417;-63
2022/10/31 07:19:46;;;;;;;39.35;14.80;;;;;;;12.96;94.24;101580.66;5055094;28;20444;-63
2022/10/31 07:22:15;;;;;;;42.00;14.60;;;;;;;12.98;93.96;101586.66;5066134;28;20047;-63
2022/10/31 07:24:43;;;;;;;47.72;16.27;;;;;;;13.00;93.56;101582.03;5072847;28;20070;-63
2022/10/31 07:27:39;;;;;;;40.95;15.57;;;;;;;13.01;93.58;101575.72;5057026;28;20079;-64
2022/10/31 07:30:11;;;;;;;38.83;14.55;;;;;;;12.97;93.57;101580.53;5054777;28;20052;-63
2022/10/31 07:32:47;;;;;;;41.53;15.23;;;;;;;13.05;92.83;101574.44;5071845;28;20132;-63
2022/10/31 07:35:18;;;;;;;37.63;15.00;;;;;;;13.12;92.86;101572.03;5072814;28;20102;-63
2022/10/31 07:37:47;;;;;;;40.28;14.70;;;;;;;13.15;92.66;101572.56;5052455;28;20094;-63
2022/10/31 07:40:16;;;;;;;41.60;14.82;;;;;;;13.20;91.96;101583.56;5014544;28;20048;-63
2022/10/31 07:42:45;;;;;;;42.78;15.65;;;;;;;13.24;92.04;101587.63;5052478;28;20099;-63
2022/10/31 07:45:31;;;;;;;43.10;15.18;;;;;;;13.32;91.14;101591.41;5051777;28;20033;-65
2022/10/31 07:48:18;;;;;;;38.58;15.82;;;;;;;13.34;90.88;101594.75;5051905;28;20037;-63
2022/10/31 07:51:06;;;;;;;40.13;14.50;;;;;;;13.34;91.40;101595.59;5037293;28;20451;-64
2022/10/31 07:53:53;;;;;;;36.08;14.45;;;;;;;13.33;91.57;101596.56;5052378;28;20047;-64
2022/10/31 07:56:23;;;;;;;40.25;15.55;;;;;;;13.31;91.39;101598.53;5052265;28;20048;-63
2022/10/31 07:58:51;;;;;;;47.20;15.73;;;;;;;13.43;91.28;101599.16;5051926;28;20041;-63
2022/10/31 08:01:17;;;;;;;38.92;14.98;;;;;;;13.58;90.73;101600.28;5052001;28;20041;-63
2022/10/31 08:03:57;;;;;;;35.85;15.30;;;;;;;13.65;91.28;101584.53;5053111;28;20044;-64
2022/10/31 08:06:43;;;;;;;47.88;15.27;;;;;;;13.75;91.10;101595.97;5054923;28;20102;-63
2022/10/31 08:09:23;;;;;;;40.95;14.98;;;;;;;13.92;90.34;101588.91;5038238;28;20124;-64
2022/10/31 08:11:52;;;;;;;41.33;15.82;;;;;;;14.02;89.62;101580.81;5056136;28;20394;-64
2022/10/31 08:14:19;;;;;;;37.05;16.55;;;;;;;14.03;89.09;101582.50;5037867;28;20388;-64
2022/10/31 08:16:46;;;;;;;46.00;16.10;;;;;;;14.05;88.68;101580.50;5056093;28;20495;-64
2022/10/31 08:19:13;;;;;;;45.83;15.93;;;;;;;14.14;87.88;101576.91;5055684;28;20395;-64
2022/10/31 08:21:40;;;;;;;42.90;16.60;;;;;;;14.28;87.61;101570.16;5056022;28;20041;-64
2022/10/31 08:24:08;;;;;;;45.60;16.13;;;;;;;14.24;86.94;101581.28;5055669;28;20564;-64
2022/10/31 08:26:35;;;;;;;42.13;16.20;;;;;;;14.26;86.62;101572.16;5055557;28;20132;-63
2022/10/31 08:29:04;;;;;;;45.13;16.73;;;;;;;14.35;86.28;101571.19;5038385;28;20067;-64
2022/10/31 08:31:32;;;;;;;46.40;15.38;;;;;;;14.42;86.69;101576.72;5055569;28;20041;-64
2022/10/31 08:34:21;;;;;;;45.60;16.35;;;;;;;14.44;85.64;101573.88;5055236;28;20060;-64
2022/10/31 08:37:08;;;;;;;43.60;15.93;;;;;;;14.45;85.58;101575.59;5055500;28;20052;-64
2022/10/31 08:39:40;;;;;;;38.33;14.43;;;;;;;14.40;84.41;101573.38;5017639;28;21041;-63
2022/10/31 08:42:07;;;;;;;39.38;13.93;;;;;;;14.53;84.45;101573.75;5054906;28;20482;-63
2022/10/31 08:44:33;;;;;;;41.58;14.27;;;;;;;14.71;84.12;101575.56;5055543;28;20048;-64
2022/10/31 08:47:00;;;;;;;38.25;13.98;;;;;;;14.69;82.57;101572.22;5055304;28;20045;-63
2022/10/31 08:49:30;;;;;;;40.88;14.32;;;;;;;14.66;83.29;101562.69;5055521;28;20048;-64
2022/10/31 08:51:56;;;;;;;36.90;14.20;;;;;;;14.70;83.42;101557.88;5037369;28;20119;-64
2022/10/31 08:54:29;;;;;;;38.72;14.07;;;;;;;14.76;82.24;101562.56;5055591;28;20128;-64
2022/10/31 08:56:58;;;;;;;38.92;15.15;;;;;;;14.73;82.07;101554.84;5055383;28;20104;-64
2022/10/31 08:59:37;;;;;;;36.55;14.60;;;;;;;14.80;83.36;101547.88;5054893;28;20029;-64
2022/10/31 09:02:18;;;;;;;;;;;;;;;14.89;83.26;101548.75;5055536;28;20032;-64
2022/10/31 09:04:47;;;;;;;32.10;13.73;;;;;;;14.96;82.60;101550.59;5054637;28;20369;-64
2022/10/31 09:07:14;;;;;;;32.38;14.43;;;;;;;15.03;82.14;101552.63;5054616;28;20037;-64
2022/10/31 09:09:45;;;;;;;39.20;14.65;;;;;;;15.10;81.35;101545.63;5054992;28;20048;-64
2022/10/31 09:12:12;;;;;;;34.22;14.45;;;;;;;15.12;81.23;101548.97;5055124;28;20044;-64
2022/10/31 09:15:00;;;;;;;39.80;14.15;;;;;;;15.13;80.86;101539.94;5054630;28;20045;-64
2022/10/31 09:17:36;;;;;;;34.88;14.27;;;;;;;15.28;81.46;101540.13;5054699;28;20073;-64
2022/10/31 09:20:15;;;;;;;30.40;13.20;;;;;;;15.22;81.63;101530.94;5054966;28;20120;-64
2022/10/31 09:22:42;;;;;;;36.45;14.13;;;;;;;15.25;81.12;101532.44;5053433;28;20552;-65
2022/10/31 09:25:09;;;;;;;41.00;14.43;;;;;;;15.17;79.98;101522.56;5054890;28;20052;-64
2022/10/31 09:27:38;;;;;;;33.90;13.77;;;;;;;15.29;79.96;101525.75;5054370;28;20488;-64
2022/10/31 09:30:06;;;;;;;37.40;13.88;;;;;;;15.47;79.52;101534.47;5054381;28;20045;-65
2022/10/31 09:32:33;;;;;;;45.15;14.35;;;;;;;15.58;79.39;101527.09;5054412;28;20052;-64
2022/10/31 09:35:02;;;;;;;45.67;14.13;;;;;;;15.61;79.35;101521.41;5054485;28;20048;-64
2022/10/31 09:37:29;;;;;;;35.90;14.10;;;;;;;15.71;78.58;101512.22;5054570;28;20056;-64
2022/10/31 09:39:55;;;;;;;39.60;15.05;;;;;;;15.72;78.00;101513.06;4998873;28;20045;-64
2022/10/31 09:45:44;;;;;;;42.13;15.00;;;;;;;16.01;76.43;101503.66;5110959;27;20407;-63
2022/10/31 09:49:07;;;;;;;43.38;14.50;;;;;;;16.09;75.67;101498.28;5110762;28;20489;-63
2022/10/31 09:51:54;;;;;;;34.10;13.88;;;;;;;16.12;76.92;101496.09;5111021;28;20048;-63
2022/10/31 09:54:39;;;;;;;37.40;14.80;;;;;;;16.03;76.26;101493.63;5109567;28;20477;-63
2022/10/31 09:57:13;;;;;;;42.28;13.57;;;;;;;16.05;75.99;101496.97;5110488;28;20044;-63
2022/10/31 09:59:45;;;;;;;42.40;15.25;;;;;;;16.14;75.69;101487.91;5110531;28;20073;-63
2022/10/31 10:02:20;;;;;;;33.35;13.98;;;;;;;16.17;75.97;101486.72;5110578;28;20074;-63
2022/10/31 10:05:11;;;;;;;42.75;16.33;;;;;;;16.29;76.11;101494.19;5108637;28;20053;-63
2022/10/31 10:07:54;;;;;;;38.08;15.45;;;;;;;16.34;75.37;101484.84;5110203;28;20413;-63
2022/10/31 10:10:53;;;;;;;48.33;14.68;;;;;;;16.44;75.32;101470.19;5110494;28;20058;-63
2022/10/31 10:14:05;;;;;;;35.33;15.00;;;;;;;16.50;74.97;101466.00;5109969;28;20054;-63
2022/10/31 10:17:12;;;;;;;37.80;15.02;;;;;;;16.80;73.87;101461.63;5110300;28;20050;-63
2022/10/31 10:20:08;;;;;;;40.25;14.77;;;;;;;17.12;73.45;101459.78;5109663;28;20052;-63
2022/10/31 10:22:58;;;;;;;43.22;14.80;;;;;;;17.12;73.22;101461.59;5110238;28;20046;-63
2022/10/31 10:25:41;;;;;;;41.15;15.85;;;;;;;16.97;72.67;101459.72;5108346;28;20044;-63
2022/10/31 10:28:33;;;;;;;46.75;16.40;;;;;;;16.88;73.76;101456.25;5109275;28;20139;-63
2022/10/31 10:31:07;;;;;;;39.92;14.52;;;;;;;16.92;74.12;101447.84;5109557;28;20508;-63
2022/10/31 10:33:40;;;;;;;35.13;15.32;;;;;;;16.78;75.39;101452.13;5109723;28;20423;-63
2022/10/31 10:36:16;;;;;;;38.72;15.55;;;;;;;16.72;75.44;101442.09;5108546;28;20048;-63
2022/10/31 10:41:31;;;;;;;32.15;13.55;;;;;;;16.80;74.86;101442.03;5111300;27;20442;-64
2022/10/31 10:44:00;;;;;;;36.38;12.90;;;;;;;16.95;73.33;101429.56;5111272;28;20108;-64
2022/10/31 10:49:37;;;;;;;40.90;12.20;;;;;;;17.41;70.61;101408.06;5110469;28;20491;-64
2022/10/31 10:52:36;;;;;;;33.00;11.77;;;;;;;18.15;67.34;101407.22;5110219;28;20047;-64
2022/10/31 10:55:32;;;;;;;42.65;11.80;;;;;;;19.16;64.53;101409.13;5111025;28;20047;-64
2022/10/31 10:58:03;;;;;;;33.38;11.43;;;;;;;19.47;63.49;101405.22;5110197;28;20059;-64
2022/10/31 11:00:47;;;;;;;37.55;12.43;;;;;;;19.43;61.54;101404.78;5092819;28;20051;-64
2022/10/31 11:03:16;;;;;;;33.00;11.73;;;;;;;19.55;63.00;101410.41;5110397;28;20051;-64
2022/10/31 11:05:50;;;;;;;32.65;11.57;;;;;;;19.49;61.96;101424.66;5107204;28;20408;-64
2022/10/31 11:08:36;;;;;;;37.72;11.40;;;;;;;19.83;61.48;101407.72;5090193;28;20072;-64
2022/10/31 11:11:10;;;;;;;32.47;12.60;;;;;;;19.99;61.08;101394.94;5089830;28;20086;-65
2022/10/31 11:13:37;;;;;;;31.42;11.30;;;;;;;20.67;59.15;101392.28;5072205;28;20490;-65
2022/10/31 11:16:09;;;;;;;33.75;11.93;;;;;;;20.57;60.12;101386.44;5071669;28;20049;-67
2022/10/31 11:18:41;;;;;;;35.63;12.13;;;;;;;20.23;59.77;101386.34;5071781;28;20040;-63
2022/10/31 11:21:19;;;;;;;;;;;;;;;20.22;60.11;101373.91;5090325;28;20095;-63
2022/10/31 11:23:45;;;;;;;37.08;11.35;;;;;;;20.31;60.33;101372.69;5093714;28;20273;-64
2022/10/31 11:26:21;;;;;;;31.35;12.05;;;;;;;20.17;60.58;101376.38;5089403;28;20068;-64
2022/10/31 11:28:57;;;;;;;33.90;11.77;;;;;;;20.21;60.29;101374.97;5088836;28;20712;-64
2022/10/31 11:31:25;;;;;;;32.05;11.10;;;;;;;20.43;60.66;101382.88;5071158;28;20397;-64
2022/10/31 11:34:01;;;;;;;36.65;12.55;;;;;;;20.35;59.81;101374.97;5088681;28;20090;-63
2022/10/31 11:36:31;;;;;;;38.05;11.95;;;;;;;20.47;59.77;101366.09;5089362;28;20047;-64
2022/10/31 11:39:01;;;;;;;32.05;11.35;;;;;;;20.25;61.26;101373.50;5071059;28;20094;-63
2022/10/31 11:41:34;;;;;;;34.20;11.48;;;;;;;20.16;62.13;101376.59;5053210;28;20051;-64
2022/10/31 11:44:05;;;;;;;35.00;12.00;;;;;;;19.62;63.18;101357.47;5068902;28;20041;-65
2022/10/31 11:46:39;;;;;;;37.80;12.60;;;;;;;19.33;64.12;101353.16;5068930;28;20047;-65
2022/10/31 11:49:16;;;;;;;33.45;11.98;;;;;;;19.14;65.64;101335.88;5068488;28;20068;-66
2022/10/31 11:51:47;;;;;;;32.75;13.32;;;;;;;18.69;65.87;101314.59;5063479;28;20040;-66
2022/10/31 11:54:27;;;;;;;31.75;12.68;;;;;;;18.86;66.71;101311.66;5064368;28;20454;-66